• Join FlightAware (Why Join?)
  • Login
  • US Flag 
11:33PM EDT


 

Airport Tracker/Info


-or-


 

Live Flight TrackerFlight Track Log ✈ N61TF ✈ 15-May-2013 ✈ KSAN - KMRY

Flight Track Log - Related Links

Times and Time Zones

All times are in EDT time to prevent confusion due to time zone crossing. See the N61TF flight status page for this flight to view local times or setup timezone preferences in your user account.

Time Position Orientation Groundspeed Altitude Reporting Facility
EDT Latitude Longitude Course Direction KTS MPH feet Rate Location/Type
10:38PM 32.7447 -117.2206 301° West 195 224 1,700  Level Los Angeles Center
10:39PM 32.7778 -117.2867 301° West 237 273 4,800 2,760 Climbing Los Angeles Center
10:40PM 32.8150 -117.3550 303° West 255 293 7,400 2,460 Climbing Los Angeles Center
10:41PM 32.8550 -117.4356 301° West 275 316 10,000 2,220 Climbing Los Angeles Center
10:42PM 32.9108 -117.5094 312° West 294 338 12,000 2,400 Climbing Los Angeles Center
10:43PM 32.9964 -117.6100 315° West 351 404 15,000 2,640 Climbing Los Angeles Center
10:44PM 33.0686 -117.6989 314° West 369 425 17,500 2,340 Climbing Los Angeles Center
10:45PM 33.1419 -117.7903 314° West 378 435 19,900 2,280 Climbing Los Angeles Center
10:46PM 33.2136 -117.8933 310° West 396 456 22,200 2,040 Climbing Los Angeles Center
10:47PM 33.2886 -117.9997 310° West 413 475 24,200 1,920 Climbing Los Angeles Center
10:49PM 33.3667 -118.1103 310° West 429 494 26,200 1,920 Climbing Los Angeles Center
10:50PM 33.4456 -118.2233 310° West 437 503 28,200 2,100 Climbing Los Angeles Center
10:51PM 33.5414 -118.3631 309° West 446 513 30,600 1,860 Climbing Los Angeles Center
10:52PM 33.6244 -118.4822 310° West 455 524 32,100 1,320 Climbing Los Angeles Center
10:53PM 33.7161 -118.5956 314° West 463 533 33,400 1,200 Climbing Los Angeles Center
10:54PM 33.8117 -118.7008 318° Northwest 462 532 34,700 1,140 Climbing Los Angeles Center
10:55PM 33.9050 -118.8056 317° Northwest 458 527 35,800 600 Climbing Los Angeles Center
10:56PM 33.9994 -118.9111 317° Northwest 461 531 36,000 60 Climbing Los Angeles Center
10:57PM 34.0889 -119.0131 317° Northwest 446 513 36,000  Level Los Angeles Center
10:58PM 34.1781 -119.1131 317° Northwest 440 506 36,000  Level Los Angeles Center
10:59PM 34.2669 -119.2153 316° Northwest 441 507 36,000  Level Los Angeles Center
11:00PM 34.3561 -119.3172 317° Northwest 442 509 36,000  Level Los Angeles Center
11:01PM 34.4647 -119.4394 317° Northwest 444 511 36,000 -300 Level Los Angeles Center
11:02PM 34.5558 -119.5439 317° Northwest 450 518 35,400 -600 Descending Los Angeles Center
11:03PM 34.6428 -119.6397 318° Northwest 453 521 34,800 -720 Descending Los Angeles Center
11:04PM 34.7325 -119.7433 317° Northwest 447 514 34,000 -900 Descending Los Angeles Center
11:05PM 34.8406 -119.8672 317° Northwest 445 512 33,000 -900 Descending Los Angeles Center
11:06PM 34.9303 -119.9711 317° Northwest 445 512 32,200 -840 Descending Los Angeles Center
11:07PM 35.0194 -120.0739 317° Northwest 442 509 31,400 -780 Descending Los Angeles Center
11:08PM 35.1017 -120.1703 316° Northwest 446 513 30,600 -720 Descending Los Angeles Center
11:09PM 35.1917 -120.2744 317° Northwest 449 517 30,000 -420 Descending Los Angeles Center
11:10PM 35.2983 -120.3994 316° Northwest 445 512 29,800 -600 Descending Los Angeles Center
11:11PM 35.3897 -120.5036 317° Northwest 453 521 28,800 -1,020 Descending Los Angeles Center
11:12PM 35.4883 -120.5967 322° Northwest 449 517 27,800 -1,020 Descending Los Angeles Center
11:13PM 35.5911 -120.6819 326° Northwest 447 514 26,700 -1,320 Descending Los Angeles Center
11:14PM 35.6889 -120.7658 325° Northwest 434 499 25,100 -1,740 Descending Los Angeles Center
11:15PM 35.7853 -120.8467 326° Northwest 423 487 23,200 -1,980 Descending Los Angeles Center
11:16PM 35.8964 -120.9414 325° Northwest 413 475 21,100 -1,920 Descending Los Angeles Center
11:17PM 35.9867 -121.0181 326° Northwest 404 465 19,300 -1,620 Descending Los Angeles Center
11:18PM 36.0750 -121.0936 325° Northwest 390 449 17,600 -1,800 Descending Oakland Center
11:19PM 36.1792 -121.1822 326° Northwest 380 437 15,400 -1,980 Descending Oakland Center
11:20PM 36.2622 -121.2536 325° Northwest 369 425 13,600 -1,800 Descending Oakland Center
11:21PM 36.3433 -121.3233 325° Northwest 359 413 11,800 -1,740 Descending Oakland Center
11:23PM 36.4217 -121.3911 325° Northwest 347 399 10,100 -1,380 Descending Oakland Center
11:24PM 36.4906 -121.4508 325° Northwest 310 357 9,000 -1,200 Descending Oakland Center
11:25PM 36.5525 -121.5061 324° Northwest 278 320 7,700 -1,200 Descending Oakland Center
11:26PM 36.6133 -121.5594 325° Northwest 270 311 6,600 -1,020 Descending Oakland Center
11:27PM 36.6689 -121.6150 321° Northwest 260 299 5,700 -960 Descending Oakland Center
11:27PM 36.6833 -121.6833 285° West 256 295 5,000 -480 Descending Northern Cal TRACON
11:28PM 36.6833 -121.7667 270° West 228 262 4,900  Descending Northern Cal TRACON
11:29PM 36.7000 -121.8500 284° West 230 265 5,000 -300 Climbing Northern Cal TRACON
11:30PM 36.7167 -121.9333 284° West 222 255 4,400 -900 Descending Northern Cal TRACON
11:31PM 36.7167 -122.0000 270° West 208 239 3,200 -720 Descending Northern Cal TRACON
11:32PM 36.7000 -122.0667 253° West 202 232 3,000 -120 Descending Northern Cal TRACON
11:33PM 36.6500 -122.0500 165° South 231 266 3,000 -240 Level Northern Cal TRACON
11:34PM 36.6333 -121.9833 107° East 198 228 2,600 -780 Descending Northern Cal TRACON
11:35PM 36.6167 -121.9333 113° Southeast 153 176 1,600 -960 Descending Northern Cal TRACON
11:36PM 36.6000 -121.8833 113° Southeast 149 171 700 -840 Descending Northern Cal TRACON